Race Results for…
Willow Glen 5K Run / Walk 2013 - 2014

May 10, 2014 presented by Willow Glen 5K and timed by SVE Timing
Participants:
1991
Last Updated:
5/12/2014 5:08:56 PM
Results are preliminary for 5 days. No result corrections will be accepted beyond 30 days.
Stats

Leaderboards

Jump to a Leaderboard

5K

Male - Overall
Bib Name Chip Elapsed Pace City Age
1 1929 MATT PAQUET 00:16:53 05:26 min/mile 26
2 1917 shawn Silverman 00:16:54 05:27 min/mile 16
3 870 JONATHAN RAHAEUSER 00:17:19 05:35 min/mile CAMPBELL 23
Female - Overall
Bib Name Chip Elapsed Pace City Age
1 1478 STEPHANIE KATO 00:20:28 06:36 min/mile SAN JOSE 25
2 639 ANNE LYNCH 00:20:39 06:39 min/mile REDWOOD CITY 41
3 1791 PARVATHI MEYYAPPAN 00:21:03 06:47 min/mile 14

Overall Results

Tip: Slide the results table left and right to view more.
1979 entrants …
5k Results
Race Place Bib Name City Chip Elapsed Pace Gender Gender Place Age Place Age
1 1929 MATT PAQUET 00:16:53 05:26 min/mile M 1 1 26
2 1917 shawn Silverman 00:16:54 05:27 min/mile M 2 1 16
3 870 JONATHAN RAHAEUSER CAMPBELL 00:17:19 05:35 min/mile M 3 2 23
4 1825 AHMED OMER 00:17:57 05:47 min/mile M 4 2 16
5 524 LEWIS KANE OAKLAND 00:17:58 05:47 min/mile M 5 3 24
6 1916 Brent Mogensen 00:18:24 05:56 min/mile M 6 3 16
7 819 KAI PHAM SAN JOSE 00:18:28 05:57 min/mile M 7 4 14
8 241 DAVID CURRY SAN JOSE 00:18:29 05:57 min/mile M 8 5 15
9 135 ROBB BROWNE SAN JOSE 00:19:04 06:09 min/mile M 9 1 49
10 1701 ALEX GONZALEZ 00:19:17 06:13 min/mile M 10 1 52
11 365 TED FUELL SAN JOSE 00:19:53 06:24 min/mile M 11 6 13
12 395 DANIEL GONZALEZ SAN JOSE 00:19:54 06:25 min/mile M 12 4 29
13 214 MATTHEW COLEMAN SAN JOSE 00:19:59 06:26 min/mile M 13 7 14
14 562 STEVEN LANDIS SAN JOSE 00:20:13 06:31 min/mile M 14 8 16
15 1478 STEPHANIE KATO SAN JOSE 00:20:28 06:36 min/mile F 1 1 25
16 1613 PATRICK BERNHARD 00:20:35 06:38 min/mile M 15 1 35
17 639 ANNE LYNCH REDWOOD CITY 00:20:39 06:39 min/mile F 2 1 41
18 1429 WESTON DEL SIGNORE SAN JOSE 00:20:44 06:41 min/mile M 16 9 14
19 1028 LUKAS SNYCERSKI SAN JOSE 00:21:00 06:46 min/mile M 17 1 12
20 1791 PARVATHI MEYYAPPAN 00:21:03 06:47 min/mile F 3 1 14
21 2113 Lucas Castillo 00:21:20 06:52 min/mile M 18 2 47
22 1709 ROBERT HARDY 00:21:23 06:53 min/mile M 19 2 31
23 1708 JACKSON HARDY 00:21:23 06:53 min/mile M 20 2 3
24 1437 ERNEST HERRERA SAN JOSE 00:21:27 06:55 min/mile M 21 2 57
25 474 CHRISTOPHER HOM SAN JOSE 00:21:45 07:00 min/mile M 22 3 12
26 347 KIRK FLATOW SAN JOSE 00:21:50 07:02 min/mile M 23 3 55
27 1909 Noe Torres 00:21:53 07:03 min/mile M 24 3 34
28 213 SEAN COLEMAN SAN JOSE 00:22:05 07:07 min/mile M 25 10 16
29 1911 REBECCA YI 00:22:07 07:08 min/mile F 4 1 39
30 1198 GORDON RUSSELL SAN JOSE 00:22:09 07:08 min/mile M 26 4 36
31 650 MATTHEW MALVINI SAN JOSE 00:22:09 07:08 min/mile M 27 11 14
32 2112 Mattia Borsalino 00:22:14 07:10 min/mile M 28 5 35
33 661 ALAN MARSHALL SAN JOSE 00:22:17 07:11 min/mile M 29 6 31
34 1562 GUS RODARTE SAN JOSE 00:22:22 07:12 min/mile M 30 3 45
35 754 JOHN NICEWONGER SAN JOSE 00:22:25 07:13 min/mile M 31 4 47
36 1876 ERIC TEMPLE 00:22:32 07:16 min/mile M 32 7 37
37 1304 MARIA SOSA SAN JOSE 00:22:39 07:18 min/mile F 5 2 25
38 1841 SCOTT POLHEMUS 00:22:44 07:20 min/mile M 33 5 43
39 881 EMILY RETTNER ALAMEDA 00:22:46 07:20 min/mile F 6 2 31
40 682 CLETE MCCONVILLE SAN JOSE 00:22:50 07:21 min/mile M 34 4 52
41 1162 HUGH WILLIAMS LOS GATOS 00:22:52 07:22 min/mile M 35 6 44
42 1225 JULIE HENRIQUES SAN JOSE 00:22:58 07:24 min/mile F 7 2 45
43 1094 NICK TOKARZ SAN JOSE 00:22:58 07:24 min/mile M 36 8 30
44 1091 REBEKAH THOMPSON DALY CITY 00:22:58 07:24 min/mile F 8 3 28
45 1608 NORMAN ANDERSON 00:22:59 07:24 min/mile M 37 9 35
46 1907 Dick Kirkpatrick 00:23:00 07:25 min/mile M 38 1 66
47 1629 JOE CALLINAN 00:23:00 07:25 min/mile M 39 10 30
48 1926 LEE SEAN 00:23:01 07:25 min/mile M 40 11 30
49 1191 JORDAN ZIMMER SAN JOSE 00:23:06 07:27 min/mile M 41 12 15
50 1301 ANTONIO HEINE SAN JOSE 00:23:06 07:27 min/mile M 42 13 13
1979 entrants …

Winners

Tip: Slide the results table left and right to view more.
Overall
Race Place Bib Name City Chip Elapsed Pace Gender Gender Place Age Place Age
1 1929 MATT PAQUET 00:16:53 05:26 min/mile M 1 1 26
15 1478 STEPHANIE KATO SAN JOSE 00:20:28 06:36 min/mile F 1 1 25
1 - 12
Race Place Bib Name City Chip Elapsed Pace Gender Gender Place Age Place Age
19 1028 LUKAS SNYCERSKI SAN JOSE 00:21:00 06:46 min/mile M 17 1 12
23 1708 JACKSON HARDY 00:21:23 06:53 min/mile M 20 2 3
25 474 CHRISTOPHER HOM SAN JOSE 00:21:45 07:00 min/mile M 22 3 12
62 1353 ADAM BERG SAN JOSE 00:23:51 07:41 min/mile M 49 4 10
67 204 HARRIS CLARK SAN JOSE 00:23:55 07:42 min/mile M 52 5 9
76 1286 AVA FEIN SAN JOSE 00:24:19 07:50 min/mile F 19 1 10
175 1860 MAYA SHASKY 00:27:19 08:48 min/mile F 51 2 4
178 1734 CLAIRE KILEY 00:27:22 08:49 min/mile F 52 3 4
203 825 ELISE PICAD SAN JOSE 00:28:03 09:02 min/mile F 63 4 9
247 498 SAMANTHA ISAACSON SAN JOSE 00:28:49 09:17 min/mile F 78 5 2
13 - 17
Race Place Bib Name City Chip Elapsed Pace Gender Gender Place Age Place Age
2 1917 shawn Silverman 00:16:54 05:27 min/mile M 2 1 16
4 1825 AHMED OMER 00:17:57 05:47 min/mile M 4 2 16
6 1916 Brent Mogensen 00:18:24 05:56 min/mile M 6 3 16
7 819 KAI PHAM SAN JOSE 00:18:28 05:57 min/mile M 7 4 14
8 241 DAVID CURRY SAN JOSE 00:18:29 05:57 min/mile M 8 5 15
20 1791 PARVATHI MEYYAPPAN 00:21:03 06:47 min/mile F 3 1 14
54 1665 HANNAH DINSDALE 00:23:18 07:30 min/mile F 12 2 16
154 1632 ELENA CARTER 00:27:00 08:42 min/mile F 40 3 14
166 156 MADISON CAIRNS SAN JOSE 00:27:13 08:46 min/mile F 47 4 15
266 1920 NIA SALMONS 00:29:08 09:23 min/mile F 88 5 14
18 - 29
Race Place Bib Name City Chip Elapsed Pace Gender Gender Place Age Place Age
1 1929 MATT PAQUET 00:16:53 05:26 min/mile M 1 1 26
3 870 JONATHAN RAHAEUSER CAMPBELL 00:17:19 05:35 min/mile M 3 2 23
5 524 LEWIS KANE OAKLAND 00:17:58 05:47 min/mile M 5 3 24
12 395 DANIEL GONZALEZ SAN JOSE 00:19:54 06:25 min/mile M 12 4 29
56 1927 KAWASHIMA CRAIG 00:23:25 07:33 min/mile M 44 5 26
15 1478 STEPHANIE KATO SAN JOSE 00:20:28 06:36 min/mile F 1 1 25
37 1304 MARIA SOSA SAN JOSE 00:22:39 07:18 min/mile F 5 2 25
44 1091 REBEKAH THOMPSON DALY CITY 00:22:58 07:24 min/mile F 8 3 28
53 1303 MICHELLE MORAN SAN JOSE 00:23:15 07:30 min/mile F 11 4 24
64 1463 KIMLY HENG SAN JOSE 00:23:54 07:42 min/mile F 15 5 28
30 - 39
Race Place Bib Name City Chip Elapsed Pace Gender Gender Place Age Place Age
16 1613 PATRICK BERNHARD 00:20:35 06:38 min/mile M 15 1 35
22 1709 ROBERT HARDY 00:21:23 06:53 min/mile M 19 2 31
27 1909 Noe Torres 00:21:53 07:03 min/mile M 24 3 34
30 1198 GORDON RUSSELL SAN JOSE 00:22:09 07:08 min/mile M 26 4 36
32 2112 Mattia Borsalino 00:22:14 07:10 min/mile M 28 5 35
29 1911 REBECCA YI 00:22:07 07:08 min/mile F 4 1 39
39 881 EMILY RETTNER ALAMEDA 00:22:46 07:20 min/mile F 6 2 31
51 874 JENNIFER REDD SAN JOSE 00:23:09 07:28 min/mile F 9 3 33
52 229 ERIN CREW SAN JOSE 00:23:10 07:28 min/mile F 10 4 31
80 1181 DANA YEE SAN JOSE 00:24:35 07:55 min/mile F 21 5 30
40 - 49
Race Place Bib Name City Chip Elapsed Pace Gender Gender Place Age Place Age
9 135 ROBB BROWNE SAN JOSE 00:19:04 06:09 min/mile M 9 1 49
21 2113 Lucas Castillo 00:21:20 06:52 min/mile M 18 2 47
34 1562 GUS RODARTE SAN JOSE 00:22:22 07:12 min/mile M 30 3 45
35 754 JOHN NICEWONGER SAN JOSE 00:22:25 07:13 min/mile M 31 4 47
38 1841 SCOTT POLHEMUS 00:22:44 07:20 min/mile M 33 5 43
17 639 ANNE LYNCH REDWOOD CITY 00:20:39 06:39 min/mile F 2 1 41
42 1225 JULIE HENRIQUES SAN JOSE 00:22:58 07:24 min/mile F 7 2 45
59 1503 JIM LEALE SAN JOSE 00:23:43 07:39 min/mile F 13 3 47
63 1502 DEBBIE LEALE SAN JOSE 00:23:52 07:41 min/mile F 14 4 48
71 1107 DIANE M. UYEDA CAPITOLA 00:24:06 07:46 min/mile F 16 5 42
50 - 59
Race Place Bib Name City Chip Elapsed Pace Gender Gender Place Age Place Age
10 1701 ALEX GONZALEZ 00:19:17 06:13 min/mile M 10 1 52
24 1437 ERNEST HERRERA SAN JOSE 00:21:27 06:55 min/mile M 21 2 57
26 347 KIRK FLATOW SAN JOSE 00:21:50 07:02 min/mile M 23 3 55
40 682 CLETE MCCONVILLE SAN JOSE 00:22:50 07:21 min/mile M 34 4 52
60 844 GILBERT PORTILLO SAN JOSE 00:23:47 07:40 min/mile M 47 5 52
78 1060 SHELLEY SUMNER SAN JOSE 00:24:29 07:53 min/mile F 20 1 59
85 1587 Mark Koukkari 00:24:41 07:57 min/mile F 23 2 52
95 1592 Pegi Wheeler 00:25:12 08:07 min/mile F 25 3 53
125 373 LAURA GARCIA SAN JOSE 00:26:06 08:25 min/mile F 30 4 53
149 1664 HELEN DIETZ 00:26:55 08:40 min/mile F 39 5 51
60 - 69
Race Place Bib Name City Chip Elapsed Pace Gender Gender Place Age Place Age
46 1907 Dick Kirkpatrick 00:23:00 07:25 min/mile M 38 1 66
106 1953 Doug Schatz 00:25:30 08:13 min/mile M 80 2 66
136 630 HURLON LUCK SAN JOSE 00:26:34 08:34 min/mile M 104 3 64
159 714 BOB MOORE SAN JOSE 00:27:09 08:45 min/mile M 117 4 62
163 1415 THOMAS ADKINS SAN JOSE 00:27:10 08:45 min/mile M 118 5 65
192 343 SUSAN FISH LOS GATOS 00:27:49 08:58 min/mile F 59 1 64
332 220 BARBARA COLYAR SAN JOSE 00:30:54 09:58 min/mile F 121 2 63
465 547 CHRISTINE KIRKPATRICK SAN JOSE 00:33:13 10:42 min/mile F 187 3 61
970 1384 NANCY REYNOSO SAN CARLOS 00:45:27 14:39 min/mile F 474 4 67
976 999 HELEN SHAW SAN JOSE 00:45:44 14:45 min/mile F 478 5 62
70 - 98
Race Place Bib Name City Chip Elapsed Pace Gender Gender Place Age Place Age
359 700 ARTHUR MICHELSON SAN JOSE 00:31:24 10:07 min/mile M 224 1 70
385 71 ROBERT BAUMAN SAN JOSE 00:31:49 10:15 min/mile M 240 2 72
398 184 ANTHONY CHAVEZ MOUNTAIN VIEW 00:32:01 10:19 min/mile M 248 3 70
527 522 BILL JONES SAN JOSE 00:34:16 11:03 min/mile M 310 4 72
1208 698 PHIL MEYER LOS ALTOS 00:53:57 17:24 min/mile M 588 5 74
958 835 MARY PIEKARSKI ODENTON 00:45:04 14:32 min/mile F 465 1 70
987 628 RUTHANNE LOWE CAMPBELL 00:46:17 14:55 min/mile F 484 2 70
1206 699 JAN MEYER LOS ALTOS 00:53:55 17:23 min/mile F 619 3 72
1223 1838 BARBARA POLHEMUS 00:54:40 17:38 min/mile F 631 4 70
1250 1287 GEORGIA OSBORNE LOS GATOS 00:55:48 18:00 min/mile F 648 5 70
99 - 99
Race Place Bib Name City Chip Elapsed Pace Gender Gender Place Age Place Age
58 779 BRIAN OSBORN SAN JOSE 00:23:41 07:38 min/mile M 46 1 99
102 1571 Rino Jose 00:25:22 08:10 min/mile M 76 2 99
366 59 ANDREW BARRETT SAN JOSE 00:31:34 10:10 min/mile M 228 3 99
877 495 CONNOR HYNOSKI SAN JOSE 00:42:43 13:46 min/mile M 466 4 99
926 2106 FERNANDO LUJANO 00:44:25 14:19 min/mile M 484 5 99
142 118 JENNIFER BRABY SAN JOSE 00:26:46 08:38 min/mile F 34 1 99
250 1594 chloe Baynes 00:28:52 09:18 min/mile F 79 2 99
568 1578 Ciarah Lee 00:34:58 11:16 min/mile F 235 3 99
618 1210 DEB MORRISON SAN JOSE 00:36:08 11:39 min/mile F 264 4 99
907 1473 JESSICA MCCOY 00:43:41 14:05 min/mile F 431 5 99

Race Info

Participants:
1991
Last Updated:
5/12/2014 5:08:56 PM
Results are preliminary for 5 days. No result corrections will be accepted beyond 30 days.
Tip: Slide the results table left and right to view more.

Search for Name, Bib, City, State or Team
in the field above… by clicking the icon below…

Race Statistics

5K - 1648


Male
Total Finishers Avg Pace
740 13:08

Female
Total Finishers Avg Pace
908 14:58
This event was timed using RM Timing Systems
Take control of your event

Have a question or need to make a correction?

Submit a Result Correction